M I D A S
Marine Information and Data Acquisition System
Tripno 661 of the Zeeleeuw from 2004-03-04 07:28:48 to 2004-03-04 15:23:20
Back to CruiseResearch ActivitiesStationsMapUnderway DataData graphs

EquipmentUnitsComments
TimeDGPSUTC
LatitudeDGPSDM.mWGS84
LongitudeDGPSDM.mWGS84
SpeedMeteo Stationm/sRelative wind speed
DirectionMeteo StationdegRelative wind direction
TemperatureMeteo Stationdeg CelciusAir temperature
PressureMeteo StationPaAtmospheric pressure
HumidityMeteo Station%Relative humidity
Missing or incorrect values are displayed as -999
Metereological data collected by the RV Zeeleeuw from 2004-03-04 07:28:48 to 2004-03-04 15:23:20
Time Latitude Longitude Speed Direction Temperature Pressure Humidity
2004-03-04 07:29 51°13.642 2°55.933 1.9 127 5.3 102210 69
2004-03-04 07:30 51°13.668 2°55.802 2.3 162 5.3 102210 69
2004-03-04 07:31 51°13.682 2°55.777 1.4 54 5.3 102200 69
2004-03-04 07:32 51°13.745 2°55.735 1.4 308 5.3 102200 69
2004-03-04 07:33 51°13.841 2°55.619 1.1 348 5.3 102210 68
2004-03-04 07:34 51°13.967 2°55.527 1.6 345 5.4 102210 68
2004-03-04 07:35 51°14.097 2°55.433 1.3 303 5.4 102210 68
2004-03-04 07:36 51°14.217 2°55.316 1.8 310 5.4 102210 68
2004-03-04 07:37 51°14.342 2°55.115 3.9 319 5.4 102210 68
2004-03-04 07:38 51°14.455 2°54.851 6.8 321 5.4 102200 67
2004-03-04 07:39 51°14.483 2°54.525 9.1 323 5.4 102190 66
2004-03-04 07:40 51°14.439 2°54.293 7.2 306 5.5 102190 67
2004-03-04 07:41 51°14.439 2°54.185 6.5 273 5.5 102200 67
2004-03-04 07:42 51°14.444 2°54.111 5.3 278 5.4 102210 68
2004-03-04 07:43 51°14.443 2°54.052 5.5 281 5.4 102200 69
2004-03-04 07:44 51°14.439 2°54.002 4.8 289 5.4 102200 69
2004-03-04 07:45 51°14.408 2°53.904 8.9 334 5.4 102190 69
2004-03-04 07:46 51°14.293 2°53.629 12.2 329 5.4 102170 69
2004-03-04 07:47 51°14.166 2°53.307 10.9 334 5.4 102170 69
2004-03-04 07:48 51°14.038 2°52.995 9.7 338 5.3 102160 69
2004-03-04 07:49 51°13.91 2°52.675 11.3 332 5.3 102170 69
2004-03-04 07:50 51°13.784 2°52.353 11.9 332 5.3 102160 70
2004-03-04 07:51 51°13.655 2°52.024 9.9 337 5.3 102160 70
2004-03-04 07:52 51°13.53 2°51.705 10.1 336 5.2 102150 71
2004-03-04 07:53 51°13.406 2°51.385 10.8 334 5.2 102160 71
2004-03-04 07:54 51°13.275 2°51.049 11.3 331 5.2 102160 72
2004-03-04 07:55 51°13.151 2°50.73 10.6 334 5.1 102160 73
2004-03-04 07:56 51°13.025 2°50.404 10.7 334 5 102160 74
2004-03-04 07:57 51°12.902 2°50.083 10.3 334 4.9 102150 75
2004-03-04 07:58 51°12.772 2°49.747 10.1 335 4.8 102160 76
2004-03-04 07:59 51°12.649 2°49.427 11.2 334 4.8 102150 77
2004-03-04 08:00 51°12.525 2°49.104 11.1 335 4.8 102150 77
2004-03-04 08:01 51°12.403 2°48.788 11.3 335 4.8 102150 76
2004-03-04 08:02 51°12.274 2°48.456 12 335 4.8 102140 75
2004-03-04 08:03 51°12.152 2°48.14 12 336 4.8 102150 75
2004-03-04 08:04 51°12.027 2°47.819 11.6 337 4.9 102150 75
2004-03-04 08:05 51°11.898 2°47.494 10.8 333 4.9 102160 75
2004-03-04 08:06 51°11.775 2°47.179 11.2 331 4.9 102150 75
2004-03-04 08:07 51°11.65 2°46.858 11.1 333 4.8 102160 75
2004-03-04 08:08 51°11.526 2°46.539 10.9 333 4.8 102160 76
2004-03-04 08:09 51°11.403 2°46.22 11.2 332 4.7 102150 77
2004-03-04 08:10 51°11.301 2°45.887 10.7 330 4.7 102150 78
2004-03-04 08:11 51°11.222 2°45.542 9.9 333 4.6 102170 78
2004-03-04 08:12 51°11.141 2°45.183 9.5 333 4.6 102160 79
2004-03-04 08:13 51°11.062 2°44.829 9.7 334 4.6 102160 79
2004-03-04 08:14 51°10.98 2°44.469 10 335 4.5 102160 80
2004-03-04 08:15 51°10.902 2°44.121 9.6 333 4.5 102150 80
2004-03-04 08:16 51°10.82 2°43.763 9.2 333 4.5 102160 80
2004-03-04 08:17 51°10.741 2°43.417 9.6 331 4.4 102160 80
2004-03-04 08:18 51°10.66 2°43.057 9.3 330 4.4 102160 80
2004-03-04 08:19 51°10.583 2°42.71 9.6 332 4.4 102160 80
2004-03-04 08:20 51°10.507 2°42.363 9 329 4.4 102150 80
2004-03-04 08:21 51°10.426 2°42.001 9.9 325 4.4 102160 80
2004-03-04 08:22 51°10.352 2°41.662 9.9 322 4.4 102160 80
2004-03-04 08:23 51°10.28 2°41.31 9.7 323 4.4 102160 80
2004-03-04 08:24 51°10.215 2°40.956 9.4 323 4.5 102150 79
2004-03-04 08:25 51°10.149 2°40.592 9.5 325 4.5 102160 80
2004-03-04 08:26 51°10.087 2°40.252 9.3 321 4.5 102160 80
2004-03-04 08:27 51°10.021 2°39.895 8.9 326 4.5 102160 80
2004-03-04 08:28 51°9.961 2°39.537 9 324 4.5 102160 80
2004-03-04 08:29 51°9.903 2°39.19 8.6 323 4.5 102160 80
2004-03-04 08:30 51°9.845 2°38.837 9.1 326 4.5 102160 80
2004-03-04 08:31 51°9.787 2°38.479 7.9 325 4.5 102160 80
2004-03-04 08:32 51°9.73 2°38.133 8.6 327 4.5 102160 80
2004-03-04 08:33 51°9.671 2°37.774 8 327 4.5 102150 80
2004-03-04 08:34 51°9.623 2°37.429 6.4 318 4.5 102150 80
2004-03-04 08:35 51°9.63 2°37.221 4.5 263 4.5 102170 80
2004-03-04 08:36 51°9.616 2°37.121 5.5 302 4.5 102170 81
2004-03-04 08:37 51°9.586 2°37.069 5.9 302 4.5 102160 81
2004-03-04 08:38 51°9.562 2°37.037 5.5 305 4.5 102160 81
2004-03-04 08:39 51°9.543 2°37.013 5.9 307 4.5 102160 81
2004-03-04 08:40 51°9.509 2°36.963 5.2 295 4.5 102160 81
2004-03-04 08:41 51°9.473 2°36.866 5.2 294 4.5 102150 81
2004-03-04 08:42 51°9.443 2°36.777 5.1 287 4.5 102150 81
2004-03-04 08:43 51°9.413 2°36.7 4.5 284 4.5 102140 82
2004-03-04 08:44 51°9.388 2°36.621 5.5 270 4.5 102140 82
2004-03-04 08:45 51°9.369 2°36.538 5 274 4.5 102140 82
2004-03-04 08:46 51°9.351 2°36.454 4.3 272 4.5 102140 82
2004-03-04 08:47 51°9.332 2°36.374 4.4 275 4.5 102140 82
2004-03-04 08:48 51°9.312 2°36.302 5.3 269 4.5 102130 83
2004-03-04 08:49 51°9.292 2°36.225 5.7 276 4.5 102130 83
2004-03-04 08:50 51°9.271 2°36.155 4.9 283 4.5 102120 83
2004-03-04 08:51 51°9.247 2°36.09 5.3 278 4.5 102120 83
2004-03-04 08:52 51°9.226 2°36.019 5.5 277 4.5 102120 83
2004-03-04 08:53 51°9.206 2°35.946 5.1 277 4.6 102120 82
2004-03-04 08:54 51°9.189 2°35.872 6.3 272 4.6 102120 82
2004-03-04 08:55 51°9.171 2°35.803 5.4 285 4.6 102110 82
2004-03-04 08:56 51°9.146 2°35.739 5.9 287 4.7 102110 82
2004-03-04 08:57 51°9.118 2°35.671 6.4 289 4.7 102110 82
2004-03-04 08:58 51°9.09 2°35.6 5.4 292 4.7 102110 81
2004-03-04 08:59 51°9.06 2°35.523 5.9 291 4.7 102120 81
2004-03-04 09:00 51°9.032 2°35.445 5.4 297 4.8 102120 81
2004-03-04 09:01 51°9.003 2°35.369 6.6 292 4.8 102120 81
2004-03-04 09:02 51°8.973 2°35.289 6.1 298 4.8 102110 81
2004-03-04 09:03 51°8.947 2°35.212 6.6 295 4.8 102110 80
2004-03-04 09:04 51°8.922 2°35.131 6.8 290 4.8 102110 80
2004-03-04 09:05 51°8.9 2°35.051 7.5 294 4.9 102110 80
2004-03-04 09:06 51°8.88 2°34.97 6.7 290 4.9 102110 80
2004-03-04 09:07 51°8.862 2°34.89 6.3 296 4.9 102110 79
2004-03-04 09:08 51°8.838 2°34.816 6.6 292 4.9 102110 79
2004-03-04 09:09 51°8.811 2°34.745 6.8 298 4.9 102110 79
2004-03-04 09:10 51°8.784 2°34.679 7.5 300 5 102120 79
2004-03-04 09:11 51°8.757 2°34.609 6.9 297 4.9 102110 79
2004-03-04 09:12 51°8.739 2°34.532 6.7 274 5 102120 79
2004-03-04 09:13 51°8.734 2°34.455 5.9 277 4.9 102120 79
2004-03-04 09:14 51°8.739 2°34.379 6.9 265 4.9 102120 79
2004-03-04 09:15 51°8.754 2°34.307 3.7 256 4.9 102120 80
2004-03-04 09:16 51°8.773 2°34.253 4.9 256 4.9 102130 80
2004-03-04 09:17 51°8.786 2°34.217 4 255 4.9 102120 80
2004-03-04 09:18 51°8.795 2°34.191 5.3 260 4.9 102120 80
2004-03-04 09:19 51°8.802 2°34.175 6.2 260 4.9 102120 81
2004-03-04 09:20 51°8.811 2°34.164 6.8 264 4.9 102120 80
2004-03-04 09:21 51°8.819 2°34.157 6.8 267 4.9 102120 81
2004-03-04 09:22 51°8.828 2°34.154 7.1 272 4.9 102120 81
2004-03-04 09:23 51°8.824 2°34.107 6.8 295 4.9 102120 81
2004-03-04 09:24 51°8.781 2°33.914 7.5 226 4.9 102110 81
2004-03-04 09:25 51°8.73 2°33.682 8.2 42 4.9 102110 81
2004-03-04 09:26 51°8.665 2°33.457 9.3 324 5 102110 81
2004-03-04 09:27 51°8.537 2°33.33 10.6 338 5 102100 80
2004-03-04 09:28 51°8.396 2°33.25 10.2 334 5 102100 80
2004-03-04 09:29 51°8.268 2°33.133 9.9 333 5.1 102090 80
2004-03-04 09:30 51°8.146 2°33.023 9.9 323 5.1 102100 80
2004-03-04 09:31 51°8.07 2°32.991 7.5 334 5.1 102100 79
2004-03-04 09:32 51°8.055 2°33.01 5.6 3 5.1 102110 79
2004-03-04 09:33 51°8.066 2°33.029 6 360 5.1 102110 79
2004-03-04 09:34 51°8.078 2°33.048 7 352 5.2 102110 79
2004-03-04 09:35 51°8.091 2°33.068 6.5 340 5.1 102110 79
2004-03-04 09:36 51°8.106 2°33.087 6.8 322 5.2 102110 79
2004-03-04 09:37 51°8.116 2°33.103 6.7 306 5.1 102110 79
2004-03-04 09:38 51°8.115 2°33.105 5.8 297 5.1 102100 79
2004-03-04 09:39 51°8.108 2°33.089 6.5 289 5.1 102100 79
2004-03-04 09:40 51°8.099 2°33.059 7 282 5.1 102110 79
2004-03-04 09:41 51°8.087 2°33.028 7.5 292 5.1 102100 79
2004-03-04 09:42 51°8.073 2°32.996 5.9 292 5.1 102100 79
2004-03-04 09:43 51°8.064 2°32.979 6.8 295 5.1 102100 79
2004-03-04 09:44 51°8.058 2°32.978 6.4 302 5.2 102100 80
2004-03-04 09:45 51°8.057 2°32.986 6.2 302 5.2 102100 79
2004-03-04 09:46 51°8.058 2°32.999 6.6 308 5.2 102090 79
2004-03-04 09:47 51°8.063 2°33.015 6.9 311 5.2 102100 80
2004-03-04 09:48 51°8.07 2°33.032 6.5 309 5.2 102100 80
2004-03-04 09:49 51°8.079 2°33.05 8.2 309 5.2 102090 79
2004-03-04 09:50 51°8.089 2°33.067 6.1 302 5.2 102090 79
2004-03-04 09:51 51°8.101 2°33.086 6.2 302 5.2 102100 79
2004-03-04 09:52 51°8.113 2°33.105 7.3 302 5.3 102100 79
2004-03-04 09:53 51°8.127 2°33.123 7.2 297 5.3 102100 79
2004-03-04 09:54 51°8.141 2°33.143 6.4 296 5.3 102100 79
2004-03-04 09:55 51°8.156 2°33.163 6 295 5.3 102100 79
2004-03-04 09:56 51°8.147 2°33.152 7.5 307 5.3 102090 79
2004-03-04 09:57 51°8.16 2°33.045 3 228 5.3 102100 79
2004-03-04 09:58 51°8.271 2°33.046 4.8 105 5.3 102100 79
2004-03-04 09:59 51°8.4 2°33.231 8.5 61 5.3 102090 79
2004-03-04 10:00 51°8.579 2°33.509 9.8 59 5.3 102030 79
2004-03-04 10:01 51°8.76 2°33.796 8.9 57 5.3 102030 79
2004-03-04 10:02 51°8.935 2°34.095 9.8 51 5.3 102030 79
2004-03-04 10:03 51°9.111 2°34.395 9.6 55 5.2 102030 79
2004-03-04 10:04 51°9.28 2°34.707 10.4 51 5.2 102030 79
2004-03-04 10:05 51°9.419 2°35.046 10.6 47 5.3 102040 79
2004-03-04 10:06 51°9.494 2°35.397 9.3 35 5.3 102070 79
2004-03-04 10:07 51°9.472 2°35.573 7.6 13 5.3 102090 79
2004-03-04 10:08 51°9.441 2°35.665 7 359 5.3 102100 79
2004-03-04 10:09 51°9.414 2°35.721 5.9 335 5.3 102090 79
2004-03-04 10:10 51°9.391 2°35.75 6.8 322 5.4 102090 79
2004-03-04 10:11 51°9.371 2°35.768 5.9 42 5.3 102090 79
2004-03-04 10:12 51°9.354 2°35.783 5.6 228 5.4 102090 79
2004-03-04 10:13 51°9.338 2°35.797 5.5 313 5.4 102090 79
2004-03-04 10:14 51°9.324 2°35.811 5.7 227 5.4 102090 79
2004-03-04 10:15 51°9.31 2°35.826 6 310 5.4 102090 79
2004-03-04 10:16 51°9.297 2°35.839 6.8 312 5.4 102090 79
2004-03-04 10:17 51°9.285 2°35.849 5.9 308 5.4 102090 79
2004-03-04 10:18 51°9.274 2°35.86 6.1 310 5.4 102090 79
2004-03-04 10:19 51°9.261 2°35.866 6.2 302 5.4 102090 79
2004-03-04 10:20 51°9.247 2°35.87 6 294 5.4 102090 78
2004-03-04 10:21 51°9.235 2°35.872 6.2 302 5.4 102090 78
2004-03-04 10:22 51°9.222 2°35.872 6 304 5.5 102090 78
2004-03-04 10:23 51°9.21 2°35.871 5.8 307 5.5 102090 78
2004-03-04 10:24 51°9.198 2°35.869 5.8 295 5.5 102090 78
2004-03-04 10:25 51°9.191 2°35.876 6 301 5.5 102080 78
2004-03-04 10:26 51°9.187 2°35.892 6 303 5.5 102090 78
2004-03-04 10:27 51°9.152 2°35.943 8.2 17 5.5 102070 78
2004-03-04 10:28 51°9.179 2°36.134 7.1 66 5.5 102040 78
2004-03-04 10:29 51°9.351 2°36.193 3.4 65 5.5 102060 79
2004-03-04 10:30 51°9.58 2°36.135 4.3 53 5.5 102050 79
2004-03-04 10:31 51°9.817 2°36.074 4.5 53 5.4 102050 79
2004-03-04 10:32 51°10.053 2°36.018 3.9 59 5.4 102050 79
2004-03-04 10:33 51°10.298 2°36.004 5.7 59 5.4 102050 79
2004-03-04 10:34 51°10.537 2°36.102 6.7 51 5.3 102090 80
2004-03-04 10:35 51°10.769 2°36.23 7.2 54 5.3 102080 80
2004-03-04 10:36 51°10.995 2°36.381 7.7 58 5.2 102030 80
2004-03-04 10:37 51°11.211 2°36.548 7.9 54 5.2 102040 81
2004-03-04 10:38 51°11.429 2°36.723 7.5 52 5.2 102030 81
2004-03-04 10:39 51°11.649 2°36.907 7.7 55 5.2 102030 81
2004-03-04 10:40 51°11.866 2°37.088 7.4 51 5.2 102040 81
2004-03-04 10:41 51°12.079 2°37.263 7.3 55 5.2 102030 81
2004-03-04 10:42 51°12.299 2°37.446 7.8 59 5.1 102030 81
2004-03-04 10:43 51°12.515 2°37.632 7.6 60 5.2 102030 81
2004-03-04 10:44 51°12.723 2°37.83 7.1 54 5.2 102040 81
2004-03-04 10:45 51°12.941 2°38.032 7.1 56 5.2 102030 81
2004-03-04 10:46 51°13.152 2°38.233 7.2 55 5.2 102030 81
2004-03-04 10:47 51°13.36 2°38.43 7.2 50 5.2 102030 81
2004-03-04 10:48 51°13.571 2°38.629 7.3 45 5.2 102030 81
2004-03-04 10:49 51°13.785 2°38.829 7.1 56 5.2 102030 81
2004-03-04 10:50 51°14.013 2°38.926 4.6 59 5.2 102030 81
2004-03-04 10:51 51°14.235 2°38.877 2.3 9 5.1 102050 81
2004-03-04 10:52 51°14.388 2°38.636 3.7 319 5.2 102050 81
2004-03-04 10:53 51°14.413 2°38.314 7.8 319 5.2 102040 81
2004-03-04 10:54 51°14.351 2°38.007 8.5 324 5.2 102030 81
2004-03-04 10:55 51°14.266 2°37.715 8.5 325 5.2 102030 81
2004-03-04 10:56 51°14.172 2°37.431 8.6 327 5.2 102030 81
2004-03-04 10:57 51°14.071 2°37.153 8.9 325 5.3 102030 81
2004-03-04 10:58 51°13.969 2°36.874 8.7 325 5.3 102030 81
2004-03-04 10:59 51°13.869 2°36.592 9.5 326 5.3 102030 81
2004-03-04 11:00 51°13.769 2°36.308 9.7 322 5.3 102020 81
2004-03-04 11:01 51°13.67 2°36.026 8.3 329 5.3 102020 81
2004-03-04 11:02 51°13.57 2°35.744 8.5 328 5.3 102020 81
2004-03-04 11:03 51°13.472 2°35.46 8.6 324 5.3 102020 82
2004-03-04 11:04 51°13.374 2°35.175 9.3 325 5.3 102020 82
2004-03-04 11:05 51°13.275 2°34.891 8.9 324 5.3 102020 82
2004-03-04 11:06 51°13.175 2°34.605 8.9 323 5.3 102010 82
2004-03-04 11:07 51°13.075 2°34.316 8.1 327 5.3 102060 82
2004-03-04 11:08 51°12.975 2°34.028 8.3 328 5.3 102020 82
2004-03-04 11:09 51°12.875 2°33.738 7.8 329 5.3 102020 82
2004-03-04 11:10 51°12.775 2°33.448 7.5 331 5.3 102020 83
2004-03-04 11:11 51°12.675 2°33.158 8.2 330 5.3 102020 83
2004-03-04 11:12 51°12.587 2°32.859 8.7 328 5.4 102020 83
2004-03-04 11:13 51°12.504 2°32.556 8.7 328 5.4 102020 83
2004-03-04 11:14 51°12.418 2°32.253 8.5 329 5.4 102020 83
2004-03-04 11:15 51°12.332 2°31.944 8 333 5.4 102020 83
2004-03-04 11:16 51°12.248 2°31.639 8.7 331 5.4 102020 83
2004-03-04 11:17 51°12.163 2°31.337 8.2 331 5.5 102020 83
2004-03-04 11:18 51°12.079 2°31.036 8.7 326 5.5 102010 83
2004-03-04 11:19 51°11.996 2°30.737 8.8 331 5.5 102010 83
2004-03-04 11:20 51°11.914 2°30.443 8 330 5.5 102010 83
2004-03-04 11:21 51°11.83 2°30.149 8.4 328 5.5 102010 83
2004-03-04 11:22 51°11.745 2°29.855 8.7 327 5.5 102010 83
2004-03-04 11:23 51°11.659 2°29.563 8.7 328 5.5 102010 83
2004-03-04 11:24 51°11.573 2°29.273 7.9 331 5.5 102010 83
2004-03-04 11:25 51°11.492 2°28.979 7.3 331 5.6 102000 83
2004-03-04 11:26 51°11.413 2°28.685 7.6 324 5.5 102000 83
2004-03-04 11:27 51°11.351 2°28.382 7.8 326 5.6 102000 83
2004-03-04 11:28 51°11.289 2°28.078 7.5 326 5.6 102000 83
2004-03-04 11:29 51°11.228 2°27.77 7 326 5.6 102000 83
2004-03-04 11:30 51°11.166 2°27.459 7.2 327 5.6 102000 83
2004-03-04 11:31 51°11.103 2°27.144 7.4 329 5.6 102000 84
2004-03-04 11:32 51°11.042 2°26.827 7.6 327 5.6 102000 84
2004-03-04 11:33 51°10.982 2°26.511 7.4 324 5.6 102000 84
2004-03-04 11:34 51°10.924 2°26.192 7.5 322 5.6 101990 84
2004-03-04 11:35 51°10.935 2°25.858 5.3 322 5.6 102030 84
2004-03-04 11:36 51°11.033 2°25.559 3 330 5.7 102000 84
2004-03-04 11:37 51°11.206 2°25.339 2.9 18 5.7 102010 84
2004-03-04 11:38 51°11.432 2°25.222 4.4 38 5.7 102000 84
2004-03-04 11:39 51°11.677 2°25.268 6.6 55 5.7 101990 84
2004-03-04 11:40 51°11.919 2°25.363 6.8 53 5.6 101990 84
2004-03-04 11:41 51°12.15 2°25.523 7.3 47 5.6 101990 84
2004-03-04 11:42 51°12.383 2°25.676 6.7 42 5.6 101990 84
2004-03-04 11:43 51°12.618 2°25.822 6.7 52 5.6 101990 84
2004-03-04 11:44 51°12.855 2°25.969 6.2 50 5.6 101990 84
2004-03-04 11:45 51°13.095 2°26.114 6.6 54 5.6 101990 84
2004-03-04 11:46 51°13.305 2°26.245 3.9 76 5.6 102040 84
2004-03-04 11:47 51°13.418 2°26.329 4.4 104 5.6 102010 84
2004-03-04 11:48 51°13.443 2°26.353 4.9 103 5.6 102050 84
2004-03-04 11:49 51°13.49 2°26.429 5.4 83 5.7 102030 84
2004-03-04 11:50 51°13.535 2°26.52 4.8 81 5.6 102030 84
2004-03-04 11:51 51°13.575 2°26.605 4.1 75 5.6 102040 84
2004-03-04 11:52 51°13.612 2°26.686 3.7 71 5.6 102030 84
2004-03-04 11:53 51°13.647 2°26.765 4.6 69 5.6 102030 85
2004-03-04 11:54 51°13.682 2°26.843 5 62 5.6 102030 85
2004-03-04 11:55 51°13.715 2°26.919 4.5 63 5.6 102030 85
2004-03-04 11:56 51°13.749 2°26.997 4.5 59 5.6 102030 85
2004-03-04 11:57 51°13.781 2°27.075 4.3 59 5.6 102030 85
2004-03-04 11:58 51°13.813 2°27.154 4.6 63 5.6 102030 85
2004-03-04 11:59 51°13.845 2°27.234 4.8 60 5.6 102030 85
2004-03-04 12:00 51°13.877 2°27.312 4.9 62 5.6 102030 85
2004-03-04 12:01 51°13.909 2°27.39 4.1 69 5.6 102030 85
2004-03-04 12:02 51°13.941 2°27.468 5.1 63 5.6 102030 85
2004-03-04 12:03 51°13.972 2°27.548 4.9 62 5.6 102030 85
2004-03-04 12:04 51°14.001 2°27.625 4.9 63 5.6 102030 85
2004-03-04 12:05 51°14.031 2°27.704 5 63 5.6 102030 85
2004-03-04 12:06 51°14.068 2°27.825 6.9 52 5.6 102010 85
2004-03-04 12:07 51°14.222 2°28.088 7.7 44 5.6 101970 85
2004-03-04 12:08 51°14.43 2°28.333 7.9 37 5.6 101980 85
2004-03-04 12:09 51°14.628 2°28.593 7.8 36 5.6 101980 85
2004-03-04 12:10 51°14.821 2°28.857 8 41 5.5 101980 85
2004-03-04 12:11 51°15.014 2°29.122 7.7 39 5.5 101980 85
2004-03-04 12:12 51°15.204 2°29.391 7.7 42 5.5 101970 85
2004-03-04 12:13 51°15.395 2°29.663 8.1 44 5.5 101970 85
2004-03-04 12:14 51°15.583 2°29.938 8.1 45 5.5 101970 85
2004-03-04 12:15 51°15.774 2°30.214 8.1 45 5.5 101970 84
2004-03-04 12:16 51°15.963 2°30.491 7.9 50 5.5 101970 84
2004-03-04 12:17 51°16.154 2°30.769 7.9 47 5.5 101970 84
2004-03-04 12:18 51°16.344 2°31.049 7.8 48 5.5 101970 84
2004-03-04 12:19 51°16.536 2°31.331 7.5 50 5.5 101970 84
2004-03-04 12:20 51°16.729 2°31.611 7.7 46 5.5 101960 84
2004-03-04 12:21 51°16.922 2°31.891 8 44 5.5 101960 84
2004-03-04 12:22 51°17.113 2°32.169 7.5 43 5.5 101970 84
2004-03-04 12:23 51°17.303 2°32.448 7.4 40 5.4 101970 84
2004-03-04 12:24 51°17.495 2°32.726 8 44 5.4 101960 84
2004-03-04 12:25 51°17.686 2°33.006 7.5 42 5.4 101960 85
2004-03-04 12:26 51°17.878 2°33.288 7.9 47 5.4 101960 85
2004-03-04 12:27 51°18.068 2°33.57 8 43 5.4 101970 85
2004-03-04 12:28 51°18.265 2°33.84 7.6 52 5.4 101970 85
2004-03-04 12:29 51°18.463 2°34.106 8 46 5.4 101960 85
2004-03-04 12:30 51°18.658 2°34.368 8.1 45 5.4 101960 85
2004-03-04 12:31 51°18.859 2°34.631 7.6 48 5.4 101960 85
2004-03-04 12:32 51°19.054 2°34.897 7.9 45 5.4 101960 85
2004-03-04 12:33 51°19.251 2°35.146 6.5 60 5.4 101960 85
2004-03-04 12:34 51°19.408 2°35.291 4.6 94 5.4 102020 85
2004-03-04 12:35 51°19.518 2°35.35 3.1 130 5.4 102020 84
2004-03-04 12:36 51°19.602 2°35.386 3.7 134 5.4 102020 84
2004-03-04 12:37 51°19.675 2°35.436 4.7 118 5.5 102010 84
2004-03-04 12:38 51°19.726 2°35.499 4.6 107 5.5 102010 84
2004-03-04 12:39 51°19.764 2°35.564 5.2 105 5.5 102020 84
2004-03-04 12:40 51°19.794 2°35.624 5.5 95 5.5 102010 84
2004-03-04 12:41 51°19.821 2°35.681 5.7 90 5.5 102010 84
2004-03-04 12:42 51°19.843 2°35.736 5.1 90 5.5 102010 84
2004-03-04 12:43 51°19.866 2°35.793 4.3 79 5.5 102010 84
2004-03-04 12:44 51°19.887 2°35.875 4.5 62 5.5 102010 84
2004-03-04 12:45 51°19.904 2°35.973 5.4 56 5.5 102010 84
2004-03-04 12:46 51°19.913 2°36.078 5.4 50 5.5 102010 84
2004-03-04 12:47 51°19.913 2°36.183 6.4 40 5.5 102010 84
2004-03-04 12:48 51°19.907 2°36.285 5.7 27 5.5 102010 84
2004-03-04 12:49 51°19.891 2°36.379 6.4 23 5.5 102010 84
2004-03-04 12:50 51°19.87 2°36.466 5.2 16 5.5 102010 84
2004-03-04 12:51 51°19.845 2°36.55 6.1 15 5.5 102010 84
2004-03-04 12:52 51°19.823 2°36.632 5.3 11 5.5 102010 84
2004-03-04 12:53 51°19.796 2°36.714 6.8 11 5.5 102000 85
2004-03-04 12:54 51°19.71 2°36.832 10.7 5 5.5 101980 85
2004-03-04 12:55 51°19.536 2°37.044 11.3 13 5.5 101960 85
2004-03-04 12:56 51°19.362 2°37.28 12.5 12 5.5 101960 85
2004-03-04 12:57 51°19.183 2°37.512 12.3 12 5.5 101960 85
2004-03-04 12:58 51°19.007 2°37.747 12.3 13 5.5 101960 85
2004-03-04 12:59 51°18.847 2°38.011 11.4 15 5.5 101960 85
2004-03-04 13:00 51°18.687 2°38.275 11.3 11 5.5 101950 85
2004-03-04 13:01 51°18.522 2°38.526 11.3 15 5.5 101960 85
2004-03-04 13:02 51°18.359 2°38.78 11.7 14 5.5 101960 85
2004-03-04 13:03 51°18.201 2°39.044 11.6 12 5.5 101960 85
2004-03-04 13:04 51°18.046 2°39.301 10.8 14 5.5 101960 85
2004-03-04 13:05 51°17.934 2°39.476 7.2 360 5.5 102000 85
2004-03-04 13:06 51°17.869 2°39.52 5.9 343 5.5 102010 85
2004-03-04 13:07 51°17.819 2°39.546 6.3 353 5.5 102010 85
2004-03-04 13:08 51°17.778 2°39.588 4.4 348 5.5 102000 85
2004-03-04 13:09 51°17.788 2°39.611 3.6 338 5.5 102010 85
2004-03-04 13:10 51°17.797 2°39.633 3.9 326 5.5 102010 85
2004-03-04 13:11 51°17.808 2°39.653 3.6 316 5.5 102010 86
2004-03-04 13:12 51°17.819 2°39.674 3.9 311 5.5 102010 86
2004-03-04 13:13 51°17.83 2°39.694 4.1 307 5.5 102010 86
2004-03-04 13:14 51°17.841 2°39.709 5 304 5.5 102010 86
2004-03-04 13:15 51°17.852 2°39.722 4.7 297 5.5 102010 86
2004-03-04 13:16 51°17.864 2°39.732 4.6 288 5.4 102010 86
2004-03-04 13:17 51°17.876 2°39.743 4.5 286 5.5 102010 86
2004-03-04 13:18 51°17.889 2°39.753 4.4 286 5.5 102010 86
2004-03-04 13:19 51°17.9 2°39.759 4.9 298 5.5 102010 86
2004-03-04 13:20 51°17.844 2°39.742 8.5 11 5.5 102000 86
2004-03-04 13:21 51°17.815 2°39.943 5.8 61 5.5 101970 85
2004-03-04 13:22 51°17.936 2°40.164 6 47 5.5 101990 86
2004-03-04 13:23 51°18.075 2°40.389 6.4 49 5.4 101980 86
2004-03-04 13:24 51°18.224 2°40.66 8.2 37 5.4 101960 86
2004-03-04 13:25 51°18.376 2°40.965 7.8 39 5.4 101960 86
2004-03-04 13:26 51°18.528 2°41.275 7.7 39 5.4 101960 86
2004-03-04 13:27 51°18.701 2°41.557 7.6 44 5.4 101960 86
2004-03-04 13:28 51°18.879 2°41.832 7 45 5.4 101960 86
2004-03-04 13:29 51°19.056 2°42.109 7.2 51 5.4 101960 86
2004-03-04 13:30 51°19.237 2°42.379 6.7 51 5.4 101960 86
2004-03-04 13:31 51°19.421 2°42.647 6.9 52 5.5 101990 85
2004-03-04 13:32 51°19.598 2°42.923 7.2 43 5.5 101960 85
2004-03-04 13:33 51°19.715 2°43.267 9 42 5.5 101950 85
2004-03-04 13:34 51°19.816 2°43.628 8.4 38 5.5 101950 85
2004-03-04 13:35 51°19.92 2°43.989 8.5 35 5.5 101990 85
2004-03-04 13:36 51°20.026 2°44.351 8.4 36 5.5 101960 85
2004-03-04 13:37 51°20.136 2°44.707 8 39 5.5 101960 85
2004-03-04 13:38 51°20.25 2°45.068 8.1 41 5.5 101950 85
2004-03-04 13:39 51°20.364 2°45.43 8.1 53 5.5 101960 85
2004-03-04 13:40 51°20.465 2°45.74 5.6 65 5.5 101980 85
2004-03-04 13:41 51°20.505 2°45.862 4.5 94 5.5 101970 85
2004-03-04 13:42 51°20.519 2°45.916 4.9 67 5.5 101990 85
2004-03-04 13:43 51°20.519 2°45.997 6.1 51 5.5 101990 85
2004-03-04 13:44 51°20.504 2°46.098 6.3 47 5.5 101980 85
2004-03-04 13:45 51°20.491 2°46.188 5.9 43 5.5 101990 85
2004-03-04 13:46 51°20.478 2°46.267 6.1 40 5.5 101990 85
2004-03-04 13:47 51°20.462 2°46.335 5.6 34 5.5 101990 85
2004-03-04 13:48 51°20.444 2°46.394 5.3 26 5.5 101990 85
2004-03-04 13:49 51°20.423 2°46.445 5.8 22 5.5 101990 85
2004-03-04 13:50 51°20.401 2°46.489 5.9 21 5.6 101990 85
2004-03-04 13:51 51°20.377 2°46.529 6 15 5.6 101990 85
2004-03-04 13:52 51°20.352 2°46.564 6.4 16 5.6 101990 85
2004-03-04 13:53 51°20.326 2°46.595 5.9 16 5.6 101990 85
2004-03-04 13:54 51°20.298 2°46.621 6.1 7 5.6 101980 85
2004-03-04 13:55 51°20.27 2°46.643 5.3 5 5.6 101980 84
2004-03-04 13:56 51°20.241 2°46.658 6 357 5.6 101980 84
2004-03-04 13:57 51°20.211 2°46.667 5.5 355 5.6 101980 84
2004-03-04 13:58 51°20.108 2°46.708 11.6 12 5.6 101950 84
2004-03-04 13:59 51°19.907 2°46.83 12.5 12 5.7 101950 84
2004-03-04 14:00 51°19.733 2°47.058 12.4 18 5.6 101940 84
2004-03-04 14:01 51°19.575 2°47.318 12.1 23 5.6 101960 84
2004-03-04 14:02 51°19.437 2°47.611 12.1 24 5.6 101930 84
2004-03-04 14:03 51°19.302 2°47.899 11.8 23 5.6 101940 84
2004-03-04 14:04 51°19.169 2°48.19 11.4 22 5.6 101930 84
2004-03-04 14:05 51°19.042 2°48.489 11.8 23 5.6 101930 84
2004-03-04 14:06 51°18.916 2°48.788 11.3 26 5.6 101930 84
2004-03-04 14:07 51°18.793 2°49.089 10.9 22 5.6 101930 84
2004-03-04 14:08 51°18.671 2°49.39 10.6 25 5.6 101930 84
2004-03-04 14:09 51°18.554 2°49.699 10.7 25 5.6 101930 84
2004-03-04 14:10 51°18.441 2°50.013 11.1 24 5.5 101930 84
2004-03-04 14:11 51°18.326 2°50.324 11.2 24 5.5 101930 84
2004-03-04 14:12 51°18.218 2°50.642 10.2 25 5.5 101930 84
2004-03-04 14:13 51°18.165 2°50.914 7.2 46 5.5 101960 84
2004-03-04 14:14 51°18.179 2°51.042 4.6 92 5.5 101960 84
2004-03-04 14:15 51°18.212 2°51.119 4.8 94 5.5 101980 84
2004-03-04 14:16 51°18.236 2°51.196 5.1 85 5.5 101980 84
2004-03-04 14:17 51°18.25 2°51.266 4.3 79 5.5 101970 84
2004-03-04 14:18 51°18.256 2°51.327 4.9 69 5.5 101970 84
2004-03-04 14:19 51°18.256 2°51.384 5.3 63 5.5 101970 84
2004-03-04 14:20 51°18.253 2°51.435 4.8 54 5.5 101980 83
2004-03-04 14:21 51°18.244 2°51.482 5 43 5.5 101970 84
2004-03-04 14:22 51°18.229 2°51.526 5.2 32 5.5 101970 83
2004-03-04 14:23 51°18.209 2°51.56 4.9 22 5.5 101970 83
2004-03-04 14:24 51°18.183 2°51.58 5 10 5.6 101970 83
2004-03-04 14:25 51°18.155 2°51.591 5.2 360 5.6 101970 83
2004-03-04 14:26 51°18.124 2°51.594 5.1 353 5.6 101970 83
2004-03-04 14:27 51°18.094 2°51.588 4.9 348 5.6 101970 83
2004-03-04 14:28 51°18.065 2°51.573 5.1 336 5.6 101970 83
2004-03-04 14:29 51°18.036 2°51.551 4.8 339 5.6 101970 83
2004-03-04 14:30 51°18.007 2°51.523 4.9 335 5.6 101970 82
2004-03-04 14:31 51°17.976 2°51.498 4.6 335 5.7 101970 82
2004-03-04 14:32 51°17.892 2°51.533 10 13 5.6 101950 83
2004-03-04 14:33 51°17.723 2°51.726 12 17 5.6 101930 83
2004-03-04 14:34 51°17.544 2°51.94 11.7 16 5.7 101930 82
2004-03-04 14:35 51°17.365 2°52.157 11.5 17 5.7 101930 82
2004-03-04 14:36 51°17.191 2°52.386 11.1 17 5.7 101930 82
2004-03-04 14:37 51°17.02 2°52.62 10.8 17 5.7 101930 82
2004-03-04 14:38 51°16.861 2°52.873 11.8 18 5.7 101930 82
2004-03-04 14:39 51°16.7 2°53.13 11.1 18 5.8 101920 82
2004-03-04 14:40 51°16.549 2°53.364 8.6 19 5.9 101950 82
2004-03-04 14:41 51°16.454 2°53.449 5.8 1 5.8 101970 82
2004-03-04 14:42 51°16.403 2°53.441 4.9 348 5.8 101960 82
2004-03-04 14:43 51°16.37 2°53.418 5 335 5.8 101960 82
2004-03-04 14:44 51°16.344 2°53.386 5.1 329 5.9 101960 82
2004-03-04 14:45 51°16.322 2°53.347 4.3 319 5.9 101960 82
2004-03-04 14:46 51°16.304 2°53.304 4.5 314 5.9 101960 82
2004-03-04 14:47 51°16.288 2°53.256 4.2 304 5.9 101950 82
2004-03-04 14:48 51°16.275 2°53.205 4.1 303 5.9 101960 82
2004-03-04 14:49 51°16.263 2°53.152 4.1 291 5.9 101960 82
2004-03-04 14:50 51°16.254 2°53.097 3.9 292 5.8 101960 82
2004-03-04 14:51 51°16.247 2°53.04 4.4 287 5.8 101950 82
2004-03-04 14:52 51°16.242 2°52.981 3.4 283 5.8 101960 82
2004-03-04 14:53 51°16.238 2°52.921 3.4 276 5.8 101960 83
2004-03-04 14:54 51°16.237 2°52.861 4.5 275 5.8 101950 83
2004-03-04 14:55 51°16.236 2°52.8 3.1 278 5.8 101950 83
2004-03-04 14:56 51°16.237 2°52.74 2.7 278 5.8 101950 82
2004-03-04 14:57 51°16.238 2°52.689 3.1 277 5.8 101950 82
2004-03-04 14:58 51°16.239 2°52.643 3.9 269 5.8 101950 83
2004-03-04 14:59 51°16.239 2°52.602 4.5 273 5.8 101960 83
2004-03-04 15:00 51°16.24 2°52.566 3 283 5.9 101950 82
2004-03-04 15:01 51°16.24 2°52.534 3.3 286 5.9 101960 82
2004-03-04 15:02 51°16.239 2°52.506 3.7 292 5.9 101960 82
2004-03-04 15:03 51°16.236 2°52.481 3.8 300 5.9 101960 82
2004-03-04 15:04 51°16.17 2°52.418 8.2 354 5.9 101940 82
2004-03-04 15:05 51°15.977 2°52.451 10.7 12 5.9 101930 82
2004-03-04 15:06 51°15.802 2°52.668 11.2 19 5.9 101900 82
2004-03-04 15:07 51°15.617 2°52.869 12.6 16 6 101900 82
2004-03-04 15:08 51°15.426 2°53.06 11.4 17 6 101900 82
2004-03-04 15:09 51°15.234 2°53.249 11.4 19 6.1 101940 82
2004-03-04 15:10 51°15.043 2°53.44 10.9 16 6.1 101900 82
2004-03-04 15:11 51°14.859 2°53.63 9.1 22 6.1 101900 81
2004-03-04 15:12 51°14.732 2°53.766 8.5 18 6.2 101940 82
2004-03-04 15:13 51°14.65 2°53.83 7.8 23 6.2 101940 81
2004-03-04 15:14 51°14.603 2°53.89 5.4 47 6.2 101950 81
2004-03-04 15:15 51°14.561 2°53.975 6 43 6.3 101940 81
2004-03-04 15:16 51°14.516 2°54.108 6.7 48 6.2 101930 81
2004-03-04 15:17 51°14.468 2°54.307 8.3 30 6.2 101920 81
2004-03-04 15:18 51°14.428 2°54.588 8.9 35 6.2 101920 81
2004-03-04 15:19 51°14.39 2°54.872 7.1 57 6.3 101920 81
2004-03-04 15:20 51°14.327 2°55.146 8.2 17 6.3 101930 81
2004-03-04 15:21 51°14.229 2°55.314 5.7 20 6.3 101940 81
2004-03-04 15:22 51°14.145 2°55.401 5.9 6 6.4 101940 81